createdAt,value
2019-04-11T00:00:25.904Z,15.80
2019-04-11T00:01:36.204Z,15.80
2019-04-11T00:02:26.995Z,15.91
2019-04-11T00:03:27.074Z,15.41
2019-04-11T00:04:26.181Z,15.80
2019-04-11T00:05:26.551Z,15.80
2019-04-11T00:06:25.842Z,16.09
2019-04-11T00:07:25.830Z,15.91
2019-04-11T00:08:26.024Z,16.00
2019-04-11T00:09:26.914Z,15.41
2019-04-11T00:10:26.034Z,15.41
2019-04-11T00:11:36.336Z,15.80
2019-04-11T00:12:26.284Z,15.80
2019-04-11T00:13:28.396Z,15.80
2019-04-11T00:14:25.758Z,15.80
2019-04-11T00:15:26.607Z,16.00
2019-04-11T00:16:25.742Z,15.80
2019-04-11T00:17:25.902Z,15.80
2019-04-11T00:18:26.959Z,16.00
2019-04-11T00:19:25.710Z,15.80
2019-04-11T00:20:26.869Z,15.80
2019-04-11T00:21:25.684Z,16.00
2019-04-11T00:22:25.737Z,16.00
2019-04-11T00:23:26.029Z,16.00
2019-04-11T00:24:25.658Z,15.60
2019-04-11T00:25:25.640Z,15.60
2019-04-11T00:26:26.434Z,15.41
2019-04-11T00:27:26.723Z,15.80
2019-04-11T00:28:25.821Z,15.60
2019-04-11T00:29:26.067Z,15.80
2019-04-11T00:30:26.191Z,15.10
2019-04-11T00:31:25.578Z,15.60
2019-04-11T00:32:25.572Z,15.91
2019-04-11T00:33:26.500Z,15.50
2019-04-11T00:34:25.551Z,15.50
2019-04-11T00:35:25.895Z,15.50
2019-04-11T00:36:25.530Z,15.50
2019-04-11T00:37:25.521Z,15.80
2019-04-11T00:38:25.725Z,15.70
2019-04-11T00:39:25.857Z,15.60
2019-04-11T00:40:25.491Z,15.70
2019-04-11T00:41:26.313Z,15.70
2019-04-11T00:42:36.725Z,15.80
2019-04-11T00:43:33.224Z,16.20
2019-04-11T00:44:27.215Z,15.30
2019-04-11T00:45:25.464Z,15.70
2019-04-11T00:46:26.547Z,16.60
2019-04-11T00:47:25.410Z,16.50
2019-04-11T00:48:25.925Z,16.71
2019-04-11T00:49:26.200Z,16.50
2019-04-11T00:50:25.391Z,16.60
2019-04-11T00:51:25.684Z,16.60
2019-04-11T00:52:25.426Z,16.41
2019-04-11T00:53:25.676Z,16.50
2019-04-11T00:54:25.342Z,17.00
2019-04-11T00:55:25.329Z,16.80
2019-04-11T00:56:26.247Z,17.00
2019-04-11T00:57:25.323Z,16.80
2019-04-11T00:58:25.633Z,16.60
2019-04-11T00:59:25.293Z,16.50
2019-04-11T01:00:25.279Z,16.60
2019-04-11T01:01:26.001Z,16.50
2019-04-11T01:02:25.293Z,16.50
2019-04-11T01:03:26.345Z,16.50
2019-04-11T01:04:25.547Z,16.60
2019-04-11T01:05:25.651Z,16.80
2019-04-11T01:06:25.908Z,16.60
2019-04-11T01:07:25.201Z,16.60
2019-04-11T01:08:25.194Z,17.00
2019-04-11T01:09:26.322Z,17.10
2019-04-11T01:10:25.173Z,16.30
2019-04-11T01:11:25.159Z,16.50
2019-04-11T01:12:25.150Z,16.71
2019-04-11T01:13:44.395Z,16.80
2019-04-11T01:14:26.163Z,16.50
2019-04-11T01:15:25.119Z,16.30
2019-04-11T01:16:26.234Z,16.71
2019-04-11T01:17:25.400Z,16.50
2019-04-11T01:18:25.714Z,16.80
2019-04-11T01:19:25.077Z,17.00
2019-04-11T01:20:25.086Z,17.00
2019-04-11T01:21:25.064Z,16.50
2019-04-11T01:22:25.047Z,16.60
2019-04-11T01:23:25.034Z,16.50
2019-04-11T01:24:25.979Z,16.80
2019-04-11T01:25:25.013Z,16.80
2019-04-11T01:26:25.378Z,16.60
2019-04-11T01:27:25.705Z,16.80
2019-04-11T01:28:24.984Z,16.60
2019-04-11T01:29:25.230Z,16.80
2019-04-11T01:30:25.008Z,16.60
2019-04-11T01:31:25.288Z,16.60
2019-04-11T01:32:24.972Z,16.80
2019-04-11T01:33:24.931Z,16.50
2019-04-11T01:34:24.918Z,16.80
2019-04-11T01:35:25.500Z,16.30
2019-04-11T01:36:24.894Z,16.69
2019-04-11T01:37:25.938Z,16.71
2019-04-11T01:38:25.521Z,16.69
2019-04-11T01:39:25.372Z,16.69
2019-04-11T01:40:25.536Z,16.20
2019-04-11T01:41:24.841Z,16.69
2019-04-11T01:42:25.070Z,16.60
2019-04-11T01:43:26.094Z,16.20
2019-04-11T01:44:34.976Z,15.60
2019-04-11T01:45:25.358Z,16.71
2019-04-11T01:46:24.796Z,15.41
2019-04-11T01:47:24.811Z,16.71
2019-04-11T01:48:25.689Z,16.71
2019-04-11T01:49:24.775Z,16.30
2019-04-11T01:50:25.119Z,16.80
2019-04-11T01:51:25.418Z,16.71
2019-04-11T01:52:24.741Z,16.41
2019-04-11T01:53:24.798Z,16.71
2019-04-11T01:54:25.839Z,16.30
2019-04-11T01:55:24.708Z,16.41
2019-04-11T01:56:25.238Z,16.50
2019-04-11T01:57:25.581Z,15.30
2019-04-11T01:58:24.673Z,16.71
2019-04-11T01:59:24.650Z,15.41
2019-04-11T02:00:24.661Z,16.71
2019-04-11T02:01:25.090Z,16.71
2019-04-11T02:02:24.620Z,16.71
2019-04-11T02:03:25.440Z,16.30
2019-04-11T02:04:24.664Z,16.60
2019-04-11T02:05:25.158Z,16.10
2019-04-11T02:06:25.613Z,16.60
2019-04-11T02:07:24.770Z,16.30
2019-04-11T02:08:25.028Z,16.60
2019-04-11T02:09:24.547Z,16.60
2019-04-11T02:10:24.578Z,16.20
2019-04-11T02:11:25.543Z,16.60
2019-04-11T02:12:24.554Z,16.71
2019-04-11T02:13:24.506Z,16.71
2019-04-11T02:14:25.746Z,16.60
2019-04-11T02:15:36.678Z,15.50
2019-04-11T02:16:25.217Z,15.70
2019-04-11T02:17:24.464Z,15.70
2019-04-11T02:18:25.507Z,15.70
2019-04-11T02:19:24.441Z,16.00
2019-04-11T02:20:24.960Z,15.70
2019-04-11T02:21:25.351Z,15.60
2019-04-11T02:22:24.451Z,15.60
2019-04-11T02:23:24.399Z,16.50
2019-04-11T02:24:24.459Z,15.60
2019-04-11T02:25:24.833Z,15.70
2019-04-11T02:26:25.146Z,15.70
2019-04-11T02:27:24.757Z,16.00
2019-04-11T02:28:24.441Z,15.70
2019-04-11T02:29:25.550Z,15.70
2019-04-11T02:30:25.535Z,15.60
2019-04-11T02:31:24.319Z,15.70
2019-04-11T02:32:25.363Z,15.70
2019-04-11T02:33:26.277Z,15.70
2019-04-11T02:34:25.332Z,15.70
2019-04-11T02:35:24.337Z,15.70
2019-04-11T02:36:24.990Z,16.71
2019-04-11T02:37:26.147Z,15.70
2019-04-11T02:38:24.607Z,16.71
2019-04-11T02:39:26.838Z,15.70
2019-04-11T02:40:24.689Z,16.10
2019-04-11T02:41:25.450Z,15.60
2019-04-11T02:42:25.560Z,15.60
2019-04-11T02:43:25.632Z,15.70
2019-04-11T02:44:34.998Z,16.60
2019-04-11T02:45:40.822Z,15.70
2019-04-11T02:46:43.229Z,15.50
2019-04-11T02:47:29.668Z,15.70
2019-04-11T02:48:26.706Z,15.70
2019-04-11T02:49:25.769Z,15.60
2019-04-11T02:50:25.964Z,15.70
2019-04-11T02:51:24.824Z,15.50
2019-04-11T02:52:25.308Z,15.39
2019-04-11T02:53:26.134Z,15.50
2019-04-11T02:54:26.278Z,15.60
2019-04-11T02:55:25.218Z,15.60
2019-04-11T02:56:25.637Z,16.60
2019-04-11T02:57:25.663Z,16.60
2019-04-11T02:58:25.435Z,15.60
2019-04-11T02:59:25.414Z,15.50
2019-04-11T03:00:24.480Z,16.00
2019-04-11T03:01:24.283Z,16.00
2019-04-11T03:02:26.053Z,15.50
2019-04-11T03:03:25.335Z,15.80
2019-04-11T03:04:24.412Z,15.80
2019-04-11T03:05:24.655Z,15.80
2019-04-11T03:06:25.686Z,16.00
2019-04-11T03:07:24.715Z,15.80
2019-04-11T03:08:26.282Z,15.70
2019-04-11T03:09:24.244Z,16.00
2019-04-11T03:10:24.804Z,16.00
2019-04-11T03:11:25.673Z,15.80
2019-04-11T03:12:24.188Z,15.80
2019-04-11T03:13:25.241Z,16.00
2019-04-11T03:14:25.137Z,15.50
2019-04-11T03:15:37.470Z,15.50
2019-04-11T03:16:38.112Z,15.80
2019-04-11T03:17:40.316Z,16.20
2019-04-11T03:18:40.376Z,15.91
2019-04-11T03:19:37.608Z,15.50
2019-04-11T03:20:33.830Z,15.50
2019-04-11T03:21:26.898Z,15.80
2019-04-11T03:22:24.804Z,16.00
2019-04-11T03:23:25.186Z,15.91
2019-04-11T03:24:24.318Z,15.70
2019-04-11T03:25:24.665Z,16.00
2019-04-11T03:26:25.041Z,16.00
2019-04-11T03:27:26.043Z,15.91
2019-04-11T03:28:28.293Z,15.80
2019-04-11T03:29:26.550Z,15.50
2019-04-11T03:30:38.485Z,16.00
2019-04-11T03:32:08.185Z,15.80
2019-04-11T03:33:17.114Z,15.41
2019-04-11T03:34:12.101Z,15.41
2019-04-11T03:35:09.269Z,15.91
2019-04-11T03:37:49.812Z,15.50
2019-04-11T03:38:46.914Z,15.80
2019-04-11T03:39:45.774Z,16.00
2019-04-11T03:40:43.178Z,15.60
2019-04-11T03:41:42.520Z,15.80
2019-04-11T03:42:40.159Z,16.00
2019-04-11T03:43:36.548Z,16.00
2019-04-11T03:44:31.471Z,16.00
2019-04-11T03:45:44.184Z,16.00
2019-04-11T03:46:38.434Z,16.00
2019-04-11T03:47:38.957Z,15.41
2019-04-11T03:48:46.817Z,15.70
2019-04-11T03:49:33.759Z,16.00
2019-04-11T03:50:28.016Z,16.00
2019-04-11T03:51:25.741Z,15.80
2019-04-11T03:52:23.859Z,15.91
2019-04-11T03:53:27.079Z,15.91
2019-04-11T03:54:25.229Z,16.20
2019-04-11T03:55:24.054Z,16.00
2019-04-11T03:56:24.353Z,15.91
2019-04-11T03:57:23.697Z,16.00
2019-04-11T03:58:24.254Z,16.00
2019-04-11T03:59:23.867Z,15.41
2019-04-11T04:00:24.790Z,16.00
2019-04-11T04:01:25.226Z,16.00
2019-04-11T04:02:24.664Z,16.00
2019-04-11T04:03:24.614Z,15.80
2019-04-11T04:04:23.863Z,16.00
2019-04-11T04:05:23.930Z,16.00
2019-04-11T04:06:23.862Z,16.00
2019-04-11T04:07:23.561Z,15.80
2019-04-11T04:08:24.709Z,15.80
2019-04-11T04:09:24.067Z,15.30
2019-04-11T04:10:23.670Z,16.10
2019-04-11T04:11:26.703Z,16.10
2019-04-11T04:12:23.565Z,15.80
2019-04-11T04:13:24.902Z,15.80
2019-04-11T04:14:24.322Z,16.20
2019-04-11T04:15:37.581Z,15.80
2019-04-11T04:16:31.116Z,16.00
2019-04-11T04:17:25.435Z,16.00
2019-04-11T04:18:23.890Z,15.80
2019-04-11T04:19:35.378Z,15.80
2019-04-11T04:20:24.535Z,15.80
2019-04-11T04:21:24.651Z,16.00
2019-04-11T04:22:24.755Z,15.30
2019-04-11T04:23:23.145Z,15.50
2019-04-11T04:24:23.146Z,15.60
2019-04-11T04:25:24.293Z,16.00
2019-04-11T04:26:23.131Z,15.91
2019-04-11T04:27:25.184Z,15.50
2019-04-11T04:28:23.771Z,15.80
2019-04-11T04:29:25.098Z,16.10
2019-04-11T04:30:24.692Z,16.00
2019-04-11T04:31:24.317Z,16.00
2019-04-11T04:32:24.956Z,15.91
2019-04-11T04:33:23.275Z,15.91
2019-04-11T04:34:23.867Z,16.00
2019-04-11T04:35:24.117Z,16.00
2019-04-11T04:36:24.729Z,15.50
2019-04-11T04:37:24.865Z,15.60
2019-04-11T04:38:23.950Z,16.00
2019-04-11T04:39:24.737Z,15.91
2019-04-11T04:40:36.036Z,16.00
2019-04-11T04:41:35.121Z,15.80
2019-04-11T04:42:31.528Z,15.80
2019-04-11T04:43:25.141Z,16.00
2019-04-11T04:44:24.276Z,15.80
2019-04-11T04:45:23.871Z,16.20
2019-04-11T04:46:35.148Z,15.80
2019-04-11T04:47:32.593Z,15.70
2019-04-11T04:48:26.725Z,16.00
2019-04-11T04:49:23.736Z,16.00
2019-04-11T04:50:34.279Z,15.60
2019-04-11T04:51:24.332Z,15.80
2019-04-11T04:52:22.879Z,16.20
2019-04-11T04:53:25.731Z,16.71
2019-04-11T04:54:24.101Z,16.20
2019-04-11T04:55:23.624Z,16.20
2019-04-11T04:56:28.428Z,15.59
2019-04-11T04:57:24.457Z,16.20
2019-04-11T04:58:24.361Z,16.39
2019-04-11T04:59:23.754Z,16.00
2019-04-11T05:00:23.418Z,16.20
2019-04-11T05:01:23.858Z,16.50
2019-04-11T05:02:24.115Z,16.49
2019-04-11T05:03:24.415Z,16.20
2019-04-11T05:04:23.487Z,16.29
2019-04-11T05:05:24.367Z,16.09
2019-04-11T05:06:24.171Z,16.29
2019-04-11T05:07:23.574Z,16.29
2019-04-11T05:08:22.954Z,16.49
2019-04-11T05:09:23.613Z,16.29
2019-04-11T05:10:24.083Z,17.10
2019-04-11T05:11:23.172Z,16.79
2019-04-11T05:12:22.728Z,16.79
2019-04-11T05:13:23.911Z,16.79
2019-04-11T05:14:23.334Z,16.79
2019-04-11T05:15:24.263Z,16.39
2019-04-11T05:16:22.596Z,16.79
2019-04-11T05:17:23.257Z,16.79
2019-04-11T05:18:23.608Z,15.29
2019-04-11T05:19:23.781Z,15.59
2019-04-11T05:20:23.807Z,15.79
2019-04-11T05:21:35.153Z,15.49
2019-04-11T05:22:22.571Z,15.59
2019-04-11T05:23:23.513Z,15.98
2019-04-11T05:24:22.879Z,15.79
2019-04-11T05:25:22.504Z,15.58
2019-04-11T05:26:23.553Z,15.79
2019-04-11T05:27:22.952Z,15.59
2019-04-11T05:28:23.471Z,15.79
2019-04-11T05:29:22.457Z,15.78
2019-04-11T05:30:23.147Z,16.49
2019-04-11T05:31:22.706Z,16.59
2019-04-11T05:32:22.419Z,16.98
2019-04-11T05:33:23.200Z,17.68
2019-04-11T05:34:23.687Z,17.28
2019-04-11T05:35:22.828Z,17.38
2019-04-11T05:36:22.720Z,17.98
2019-04-11T05:37:22.820Z,18.38
2019-04-11T05:38:23.084Z,19.47
2019-04-11T05:39:23.435Z,18.87
2019-04-11T05:40:22.331Z,19.67
2019-04-11T05:41:23.576Z,18.97
2019-04-11T05:42:25.199Z,19.77
2019-04-11T05:43:28.105Z,19.37
2019-04-11T05:44:23.286Z,19.07
2019-04-11T05:45:24.427Z,19.16
2019-04-11T05:46:32.513Z,19.46
2019-04-11T05:47:23.448Z,19.56
2019-04-11T05:48:25.593Z,19.66
2019-04-11T05:49:23.178Z,20.16
2019-04-11T05:50:22.255Z,20.06
2019-04-11T05:51:23.786Z,19.35
2019-04-11T05:52:34.203Z,19.75
2019-04-11T05:53:22.827Z,20.05
2019-04-11T05:54:22.190Z,20.24
2019-04-11T05:55:22.185Z,20.34
2019-04-11T05:56:22.165Z,19.74
2019-04-11T05:57:24.279Z,20.34
2019-04-11T05:58:24.162Z,19.74
2019-04-11T05:59:23.919Z,19.84
2019-04-11T06:00:22.366Z,19.94
2019-04-11T06:01:22.450Z,20.83
2019-04-11T06:02:22.111Z,19.14
2019-04-11T06:03:22.143Z,18.34
2019-04-11T06:04:24.096Z,19.46
2019-04-11T06:05:24.499Z,19.96
2019-04-11T06:06:23.054Z,19.27
2019-04-11T06:07:23.154Z,19.79
2019-04-11T06:08:26.915Z,21.20
2019-04-11T06:09:23.055Z,21.22
2019-04-11T06:10:22.014Z,20.53
2019-04-11T06:11:24.049Z,22.23
2019-04-11T06:12:22.221Z,20.73
2019-04-11T06:13:22.683Z,21.65
2019-04-11T06:14:22.862Z,22.05
2019-04-11T06:15:23.009Z,22.36
2019-04-11T06:16:23.997Z,21.76
2019-04-11T06:17:23.896Z,22.67
2019-04-11T06:18:26.958Z,23.88
2019-04-11T06:19:23.010Z,22.26
2019-04-11T06:20:22.104Z,23.76
2019-04-11T06:21:22.104Z,21.66
2019-04-11T06:22:21.888Z,20.84
2019-04-11T06:23:32.373Z,20.95
2019-04-11T06:24:21.863Z,20.54
2019-04-11T06:25:23.368Z,20.14
2019-04-11T06:26:22.988Z,20.03
2019-04-11T06:27:22.196Z,20.53
2019-04-11T06:28:22.211Z,20.03
2019-04-11T06:29:26.224Z,19.53
2019-04-11T06:30:22.801Z,19.42
2019-04-11T06:31:22.011Z,19.42
2019-04-11T06:32:21.825Z,19.42
2019-04-11T06:33:22.701Z,19.53
2019-04-11T06:34:24.083Z,20.03
2019-04-11T06:35:22.069Z,20.75
2019-04-11T06:36:21.733Z,20.64
2019-04-11T06:37:21.720Z,21.44
2019-04-11T06:38:22.674Z,21.94
2019-04-11T06:39:21.702Z,22.13
2019-04-11T06:40:22.836Z,21.33
2019-04-11T06:41:22.145Z,21.33
2019-04-11T06:42:24.441Z,21.31
2019-04-11T06:43:21.661Z,22.31
2019-04-11T06:44:21.724Z,21.11
2019-04-11T06:45:21.820Z,21.81
2019-04-11T06:46:21.834Z,22.20
2019-04-11T06:47:22.896Z,21.09
2019-04-11T06:48:23.136Z,21.89
2019-04-11T06:49:22.482Z,22.19
2019-04-11T06:50:22.889Z,21.20
2019-04-11T06:51:22.029Z,21.39
2019-04-11T06:52:21.566Z,20.79
2019-04-11T06:53:21.553Z,20.68
2019-04-11T06:54:32.846Z,20.98
2019-04-11T06:55:22.454Z,21.58
2019-04-11T06:56:21.523Z,21.67
2019-04-11T06:57:22.249Z,22.17
2019-04-11T06:58:21.597Z,21.47
2019-04-11T06:59:21.490Z,21.86
2019-04-11T07:00:21.540Z,22.16
2019-04-11T07:01:22.397Z,21.86
2019-04-11T07:02:24.405Z,21.66
2019-04-11T07:03:25.527Z,21.56
2019-04-11T07:04:21.839Z,18.57
2019-04-11T07:05:22.501Z,20.87
2019-04-11T07:06:21.732Z,20.68
2019-04-11T07:07:21.526Z,19.88
2019-04-11T07:08:22.254Z,19.48
2019-04-11T07:09:22.280Z,19.88
2019-04-11T07:10:22.331Z,19.98
2019-04-11T07:11:21.365Z,21.28
2019-04-11T07:12:22.166Z,20.68
2019-04-11T07:13:21.344Z,19.67
2019-04-11T07:14:22.398Z,19.96
2019-04-11T07:15:21.318Z,20.06
2019-04-11T07:16:21.960Z,19.37
2019-04-11T07:17:21.297Z,18.27
2019-04-11T07:18:22.549Z,18.07
2019-04-11T07:19:21.892Z,19.17
2019-04-11T07:20:21.274Z,20.18
2019-04-11T07:21:21.278Z,20.28
2019-04-11T07:22:21.247Z,19.68
2019-04-11T07:23:22.251Z,19.98
2019-04-11T07:24:22.314Z,19.88
2019-04-11T07:25:31.589Z,20.68
2019-04-11T07:26:21.206Z,21.28
2019-04-11T07:27:21.198Z,21.17
2019-04-11T07:28:21.188Z,20.97
2019-04-11T07:29:21.543Z,20.97
2019-04-11T07:30:22.804Z,20.87
2019-04-11T07:31:21.738Z,21.36
2019-04-11T07:32:22.282Z,19.46
2019-04-11T07:33:21.147Z,20.47
2019-04-11T07:34:21.327Z,19.47
2019-04-11T07:35:21.446Z,21.36
2019-04-11T07:36:21.140Z,19.96
2019-04-11T07:37:21.438Z,20.07
2019-04-11T07:38:21.077Z,19.85
2019-04-11T07:39:22.423Z,19.96
2019-04-11T07:40:21.959Z,19.36
2019-04-11T07:41:21.640Z,19.96
2019-04-11T07:42:21.341Z,19.06
2019-04-11T07:43:21.029Z,16.96
2019-04-11T07:44:21.798Z,17.67
2019-04-11T07:45:21.051Z,19.89
2019-04-11T07:46:21.931Z,19.19
2019-04-11T07:47:23.736Z,19.49
2019-04-11T07:48:21.973Z,20.09
2019-04-11T07:49:20.999Z,18.90
2019-04-11T07:50:21.347Z,20.20
2019-04-11T07:51:20.937Z,19.79
2019-04-11T07:52:20.943Z,20.79
2019-04-11T07:53:21.714Z,21.09
2019-04-11T07:54:20.912Z,19.38
2019-04-11T07:55:21.063Z,19.09
2019-04-11T07:56:31.511Z,20.90
2019-04-11T07:57:20.895Z,21.39
2019-04-11T07:58:21.692Z,19.49
2019-04-11T07:59:21.707Z,20.09
2019-04-11T08:00:34.972Z,20.29
2019-04-11T08:01:21.837Z,20.40
2019-04-11T08:02:23.649Z,20.98
2019-04-11T08:03:21.415Z,21.19
2019-04-11T08:04:21.660Z,20.98
2019-04-11T08:05:21.507Z,19.89
2019-04-11T08:06:20.785Z,20.39
2019-04-11T08:07:20.767Z,20.87
2019-04-11T08:08:21.435Z,20.87
2019-04-11T08:09:20.785Z,21.06
2019-04-11T08:10:20.749Z,21.36
2019-04-11T08:11:20.727Z,21.45
2019-04-11T08:12:21.319Z,20.65
2019-04-11T08:13:20.764Z,20.65
2019-04-11T08:14:20.697Z,19.66
2019-04-11T08:15:21.688Z,19.35
2019-04-11T08:16:20.676Z,18.85
2019-04-11T08:17:30.932Z,19.25
2019-04-11T08:18:21.653Z,16.96
2019-04-11T08:19:21.100Z,19.36
2019-04-11T08:20:21.382Z,18.26
2019-04-11T08:21:21.805Z,18.86
2019-04-11T08:22:21.026Z,17.26
2019-04-11T08:23:21.383Z,18.47
2019-04-11T08:24:20.592Z,18.37
2019-04-11T08:25:20.885Z,17.47
2019-04-11T08:26:20.588Z,16.97
2019-04-11T08:27:31.636Z,18.17
2019-04-11T08:28:20.674Z,17.88
2019-04-11T08:29:20.539Z,18.87
2019-04-11T08:30:20.527Z,16.68
2019-04-11T08:31:21.548Z,18.28
2019-04-11T08:32:20.542Z,18.88
2019-04-11T08:33:20.501Z,17.38
2019-04-11T08:34:21.799Z,16.79
2019-04-11T08:35:20.471Z,18.19
2019-04-11T08:36:20.460Z,18.19
2019-04-11T08:37:21.165Z,18.79
2019-04-11T08:38:20.479Z,18.69
2019-04-11T08:39:20.700Z,17.99
2019-04-11T08:40:20.420Z,16.79
2019-04-11T08:41:20.406Z,18.49
2019-04-11T08:42:21.296Z,17.39
2019-04-11T08:43:21.351Z,17.99
2019-04-11T08:44:20.498Z,18.10
2019-04-11T08:45:21.494Z,18.69
2019-04-11T08:46:20.673Z,19.20
2019-04-11T08:47:20.455Z,18.29
2019-04-11T08:48:21.225Z,17.90
2019-04-11T08:49:21.518Z,19.40
2019-04-11T08:50:20.680Z,21.00
2019-04-11T08:51:20.307Z,21.98
2019-04-11T08:52:21.468Z,21.19
2019-04-11T08:53:20.663Z,21.39
2019-04-11T08:54:20.274Z,21.09
2019-04-11T08:55:21.041Z,20.79
2019-04-11T08:56:21.083Z,21.28
2019-04-11T08:57:20.243Z,19.19
2019-04-11T08:58:33.020Z,21.28
2019-04-11T08:59:20.216Z,20.87
2019-04-11T09:00:20.212Z,20.98
2019-04-11T09:01:20.243Z,20.98
2019-04-11T09:02:20.611Z,20.57
2019-04-11T09:03:20.180Z,20.37
2019-04-11T09:04:20.164Z,20.87
2019-04-11T09:05:20.458Z,19.96
2019-04-11T09:06:20.838Z,20.65
2019-04-11T09:07:21.145Z,19.85
2019-04-11T09:08:20.395Z,19.96
2019-04-11T09:09:20.904Z,20.16
2019-04-11T09:10:20.107Z,19.85
2019-04-11T09:11:20.485Z,19.36
2019-04-11T09:12:20.549Z,20.16
2019-04-11T09:13:20.076Z,19.25
2019-04-11T09:14:20.064Z,19.25
2019-04-11T09:15:21.118Z,19.35
2019-04-11T09:16:20.039Z,20.36
2019-04-11T09:17:21.476Z,20.35
2019-04-11T09:18:20.059Z,18.85
2019-04-11T09:19:21.014Z,19.46
2019-04-11T09:20:21.294Z,20.35
2019-04-11T09:21:20.267Z,19.15
2019-04-11T09:22:20.529Z,19.65
2019-04-11T09:23:19.971Z,18.26
2019-04-11T09:24:19.992Z,19.36
2019-04-11T09:25:21.149Z,18.76
2019-04-11T09:26:20.254Z,19.36
2019-04-11T09:27:20.468Z,19.85
2019-04-11T09:28:19.913Z,20.06
2019-04-11T09:29:30.411Z,20.16
2019-04-11T09:30:20.918Z,19.96
2019-04-11T09:31:21.181Z,17.95
2019-04-11T09:32:20.186Z,20.16
2019-04-11T09:33:20.766Z,19.56
2019-04-11T09:34:19.848Z,19.35
2019-04-11T09:35:19.881Z,19.85
2019-04-11T09:36:19.831Z,19.45
2019-04-11T09:37:20.454Z,18.75
2019-04-11T09:38:19.807Z,19.76
2019-04-11T09:39:19.794Z,18.96
2019-04-11T09:40:19.790Z,18.76
2019-04-11T09:41:20.578Z,16.96
2019-04-11T09:42:22.399Z,19.46
2019-04-11T09:43:19.939Z,19.85
2019-04-11T09:44:20.373Z,19.85
2019-04-11T09:45:19.736Z,19.16
2019-04-11T09:46:19.723Z,19.76
2019-04-11T09:47:19.962Z,19.85
2019-04-11T09:48:21.001Z,19.85
2019-04-11T09:49:20.503Z,19.55
2019-04-11T09:50:20.395Z,18.75
2019-04-11T09:51:19.673Z,19.55
2019-04-11T09:52:20.568Z,19.45
2019-04-11T09:53:20.652Z,19.35
2019-04-11T09:54:19.826Z,19.34
2019-04-11T09:55:19.625Z,20.35
2019-04-11T09:56:20.764Z,19.64
2019-04-11T09:57:20.591Z,20.14
2019-04-11T09:58:19.670Z,19.04
2019-04-11T09:59:20.731Z,17.94
2019-04-11T10:00:30.452Z,19.55
2019-04-11T10:01:20.240Z,20.24
2019-04-11T10:02:19.556Z,19.94
2019-04-11T10:03:19.792Z,19.84
2019-04-11T10:04:19.571Z,19.94
2019-04-11T10:05:20.149Z,20.04
2019-04-11T10:06:19.563Z,19.34
2019-04-11T10:07:19.688Z,18.84
2019-04-11T10:08:19.489Z,20.34
2019-04-11T10:09:19.759Z,19.44
2019-04-11T10:10:19.475Z,19.54
2019-04-11T10:11:19.455Z,19.44
2019-04-11T10:12:20.016Z,19.84
2019-04-11T10:13:20.555Z,20.64
2019-04-11T10:14:19.761Z,19.95
2019-04-11T10:15:19.456Z,20.04
2019-04-11T10:16:19.923Z,19.14
2019-04-11T10:17:21.311Z,19.84
2019-04-11T10:18:25.193Z,18.94
2019-04-11T10:19:20.367Z,19.04
2019-04-11T10:20:20.308Z,19.34
2019-04-11T10:21:19.440Z,19.94
2019-04-11T10:22:20.616Z,19.44
2019-04-11T10:23:19.326Z,19.04
2019-04-11T10:24:20.862Z,19.53
2019-04-11T10:25:19.304Z,19.83
2019-04-11T10:26:20.211Z,19.33
2019-04-11T10:27:20.470Z,19.13
2019-04-11T10:28:19.539Z,19.33
2019-04-11T10:29:19.296Z,19.23
2019-04-11T10:30:19.472Z,19.33
2019-04-11T10:31:31.115Z,19.53
2019-04-11T10:32:19.234Z,19.83
2019-04-11T10:33:20.458Z,19.53
2019-04-11T10:34:19.622Z,19.32
2019-04-11T10:35:20.211Z,19.52
2019-04-11T10:36:19.191Z,19.62
2019-04-11T10:37:20.036Z,19.62
2019-04-11T10:38:20.400Z,19.62
2019-04-11T10:39:19.795Z,19.92
2019-04-11T10:40:21.244Z,19.52
2019-04-11T10:41:19.135Z,19.62
2019-04-11T10:42:20.213Z,20.12
2019-04-11T10:43:20.277Z,19.62
2019-04-11T10:44:19.102Z,19.12
2019-04-11T10:45:19.133Z,19.31
2019-04-11T10:46:19.609Z,20.01
2019-04-11T10:47:19.078Z,20.21
2019-04-11T10:48:20.061Z,20.11
2019-04-11T10:49:20.052Z,20.01
2019-04-11T10:50:19.585Z,19.51
2019-04-11T10:51:19.040Z,19.31
2019-04-11T10:52:20.310Z,19.81
2019-04-11T10:53:19.459Z,19.71
2019-04-11T10:54:19.741Z,19.51
2019-04-11T10:55:19.755Z,19.41
2019-04-11T10:56:19.096Z,19.91
2019-04-11T10:57:20.952Z,19.91
2019-04-11T10:58:18.956Z,20.11
2019-04-11T10:59:19.555Z,20.11
2019-04-11T11:00:19.016Z,19.92
2019-04-11T11:01:19.883Z,21.00
2019-04-11T11:02:29.595Z,20.90
2019-04-11T11:03:20.243Z,20.31
2019-04-11T11:04:19.964Z,20.81
2019-04-11T11:05:19.479Z,20.31
2019-04-11T11:06:19.760Z,21.11
2019-04-11T11:07:18.859Z,20.01
2019-04-11T11:08:19.460Z,20.61
2019-04-11T11:09:19.871Z,19.71
2019-04-11T11:10:19.575Z,20.01
2019-04-11T11:11:19.487Z,20.61
2019-04-11T11:12:19.107Z,19.81
2019-04-11T11:13:18.792Z,19.21
2019-04-11T11:14:18.916Z,19.01
2019-04-11T11:15:19.871Z,18.82
2019-04-11T11:16:18.762Z,18.52
2019-04-11T11:17:43.802Z,18.82
2019-04-11T11:19:00.219Z,18.23
2019-04-11T11:19:40.386Z,18.22
2019-04-11T11:20:27.500Z,18.43
2019-04-11T11:21:19.851Z,18.23
2019-04-11T11:22:18.904Z,18.43
2019-04-11T11:23:18.686Z,18.02
2019-04-11T11:24:19.751Z,18.32
2019-04-11T11:25:19.578Z,18.13
2019-04-11T11:26:22.642Z,18.32
2019-04-11T11:27:18.660Z,18.33
2019-04-11T11:28:18.653Z,18.63
2019-04-11T11:29:19.236Z,18.13
2019-04-11T11:30:18.825Z,18.04
2019-04-11T11:31:18.605Z,17.44
2019-04-11T11:32:18.998Z,18.24
2019-04-11T11:33:30.075Z,17.85
2019-04-11T11:34:20.291Z,18.13
2019-04-11T11:35:22.451Z,17.35
2019-04-11T11:36:19.551Z,17.05
2019-04-11T11:37:18.713Z,17.05
2019-04-11T11:38:19.800Z,17.65
2019-04-11T11:39:19.333Z,16.55
2019-04-11T11:40:18.961Z,16.65
2019-04-11T11:41:18.559Z,16.55
2019-04-11T11:42:18.481Z,16.55
2019-04-11T11:43:19.040Z,16.65
2019-04-11T11:44:19.494Z,16.45
2019-04-11T11:45:19.486Z,16.95
2019-04-11T11:46:19.371Z,16.95
2019-04-11T11:47:19.517Z,16.05
2019-04-11T11:48:20.792Z,16.05
2019-04-11T11:49:32.449Z,16.75
2019-04-11T11:50:21.767Z,16.05
2019-04-11T11:51:22.693Z,17.05
2019-04-11T11:52:19.424Z,16.15
2019-04-11T11:53:18.514Z,16.16
2019-04-11T11:54:19.700Z,16.26
2019-04-11T11:55:19.826Z,16.16
2019-04-11T11:56:18.338Z,16.26
2019-04-11T11:57:18.411Z,16.75
2019-04-11T11:58:19.832Z,16.36
2019-04-11T11:59:19.643Z,16.66
2019-04-11T12:00:18.304Z,16.56
2019-04-11T12:01:18.293Z,16.46
2019-04-11T12:02:20.873Z,15.66
2019-04-11T12:03:19.088Z,15.46
2019-04-11T12:04:33.045Z,15.76
2019-04-11T12:05:20.524Z,15.76
2019-04-11T12:06:22.250Z,15.76
2019-04-11T12:07:18.960Z,15.96
2019-04-11T12:08:18.359Z,15.56
2019-04-11T12:09:18.416Z,15.86
2019-04-11T12:10:19.476Z,15.76
2019-04-11T12:11:18.177Z,15.56
2019-04-11T12:12:18.174Z,15.66
2019-04-11T12:13:19.254Z,15.56
2019-04-11T12:14:18.166Z,15.37
2019-04-11T12:15:22.067Z,15.16
2019-04-11T12:16:21.354Z,15.17
2019-04-11T12:17:18.637Z,14.87
2019-04-11T12:18:18.906Z,14.97
2019-04-11T12:19:20.373Z,15.07
2019-04-11T12:20:18.604Z,15.37
2019-04-11T12:21:22.670Z,15.17
2019-04-11T12:22:20.106Z,15.06
2019-04-11T12:23:18.052Z,15.56
2019-04-11T12:24:18.057Z,15.77
2019-04-11T12:25:18.031Z,15.56
2019-04-11T12:26:18.400Z,15.37
2019-04-11T12:27:18.540Z,15.56
2019-04-11T12:28:18.386Z,15.56
2019-04-11T12:29:18.573Z,15.47
2019-04-11T12:30:22.247Z,15.37
2019-04-11T12:31:19.713Z,15.47
2019-04-11T12:32:17.961Z,15.37
2019-04-11T12:33:17.952Z,15.47
2019-04-11T12:34:18.641Z,15.17
2019-04-11T12:35:28.924Z,14.87
2019-04-11T12:36:18.749Z,15.47
2019-04-11T12:37:50.104Z,15.47
2019-04-11T12:38:20.369Z,15.07
2019-04-11T12:39:17.884Z,14.67
2019-04-11T12:40:17.870Z,14.87
2019-04-11T12:41:20.072Z,14.77
2019-04-11T12:42:17.858Z,14.97
2019-04-11T12:43:17.876Z,15.17
2019-04-11T12:44:17.830Z,15.07
2019-04-11T12:45:17.815Z,14.87
2019-04-11T12:46:19.338Z,15.17
2019-04-11T12:47:18.806Z,15.26
2019-04-11T12:48:17.782Z,15.37
2019-04-11T12:49:17.815Z,15.26
2019-04-11T12:50:17.763Z,15.26
2019-04-11T12:51:17.750Z,15.56
2019-04-11T12:52:17.744Z,15.17
2019-04-11T12:53:17.750Z,14.97
2019-04-11T12:54:17.720Z,15.07